Time;durP1;ratioP1;P1;durP2;ratioP2;P2;SDS_P1;SDS_P2;PMS_P1;PMS_P2;Temp;Humidity;BMP_temperature;BMP_pressure;BME280_temperature;BME280_humidity;BME280_pressure;Samples;Min_cycle;Max_cycle;Signal;HPM_P1;HPM_P2
2021/03/24 00:00:10;;;;;;;37.80;22.50;;;;;;;-1.26;100.00;96777.13;1023538;28;20481;-51
2021/03/24 00:00:43;;;;;;;29.96;21.20;;;;;;;-1.29;100.00;96772.00;1023488;28;20027;-51
2021/03/24 00:01:17;;;;;;;32.24;20.84;;;;;;;-1.29;100.00;96777.16;1023386;29;20023;-50
2021/03/24 00:01:48;;;;;;;31.58;20.94;;;;;;;-1.32;100.00;96760.91;1015640;29;20103;-49
2021/03/24 00:02:18;;;;;;;31.17;21.05;;;;;;;-1.26;100.00;96773.69;1015730;29;20024;-52
2021/03/24 00:02:49;;;;;;;31.42;21.10;;;;;;;-1.27;100.00;96766.84;1023593;28;20030;-51
2021/03/24 00:03:20;;;;;;;37.03;20.88;;;;;;;-1.28;100.00;96772.84;1023411;28;20073;-49
2021/03/24 00:03:51;;;;;;;31.52;20.63;;;;;;;-1.29;100.00;96776.31;1027342;28;20509;-52
2021/03/24 00:04:22;;;;;;;30.24;20.76;;;;;;;-1.29;100.00;96774.59;1027570;28;20019;-50
2021/03/24 00:04:52;;;;;;;33.80;21.42;;;;;;;-1.27;100.00;96774.56;1015590;29;20390;-51
2021/03/24 00:05:27;;;;;;;34.13;20.88;;;;;;;-1.28;100.00;96771.13;1019486;29;20403;-51
2021/03/24 00:05:58;;;;;;;34.88;21.42;;;;;;;-1.30;100.00;96778.00;1023523;29;20027;-50
2021/03/24 00:06:29;;;;;;;32.70;20.60;;;;;;;-1.30;100.00;96779.72;1019606;28;20283;-49
2021/03/24 00:07:00;;;;;;;36.60;22.50;;;;;;;-1.33;100.00;96766.91;1019581;29;20110;-50
2021/03/24 00:07:30;;;;;;;32.67;21.98;;;;;;;-1.31;100.00;96770.34;1019530;29;20520;-51
2021/03/24 00:08:01;;;;;;;31.88;21.40;;;;;;;-1.32;100.00;96776.31;1027483;28;20081;-51
2021/03/24 00:08:32;;;;;;;40.05;22.33;;;;;;;-1.33;100.00;96774.59;1027550;28;20019;-51
2021/03/24 00:09:04;;;;;;;34.60;21.28;;;;;;;-1.33;100.00;96772.91;1023363;29;20263;-51
2021/03/24 00:09:35;;;;;;;37.60;22.33;;;;;;;-1.34;100.00;96778.06;1023421;29;20089;-51
2021/03/24 00:10:07;;;;;;;34.40;22.15;;;;;;;-1.35;100.00;96776.34;1019595;29;20263;-49
2021/03/24 00:10:38;;;;;;;39.85;22.83;;;;;;;-1.39;100.00;96765.25;1019695;29;20032;-49
2021/03/24 00:11:09;;;;;;;35.00;22.32;;;;;;;-1.37;100.00;96774.66;1023827;28;20255;-52
2021/03/24 00:11:40;;;;;;;33.47;20.45;;;;;;;-1.37;100.00;96772.09;1027872;28;20031;-50
2021/03/24 00:12:11;;;;;;;36.28;21.25;;;;;;;-1.35;100.00;96768.63;1015673;29;20467;-49
2021/03/24 00:12:41;;;;;;;37.00;21.60;;;;;;;-1.34;100.00;96775.50;1019632;29;20028;-50
2021/03/24 00:13:12;;;;;;;37.58;22.52;;;;;;;-1.34;100.00;96775.50;1027455;28;20393;-50
2021/03/24 00:13:43;;;;;;;33.83;20.85;;;;;;;-1.34;100.00;96776.34;1019315;28;20032;-53
2021/03/24 00:14:14;;;;;;;29.98;20.52;;;;;;;-1.36;100.00;96770.38;1023497;28;20147;-49
2021/03/24 00:14:45;;;;;;;31.67;20.63;;;;;;;-1.35;100.00;96772.09;1023548;29;20019;-49
2021/03/24 00:15:16;;;;;;;32.35;20.73;;;;;;;-1.32;100.00;96776.31;1019543;29;20263;-50
2021/03/24 00:15:46;;;;;;;30.38;20.45;;;;;;;-1.33;100.00;96770.34;1023427;29;20023;-50
2021/03/24 00:16:17;;;;;;;32.72;21.30;;;;;;;-1.34;100.00;96771.19;1031465;28;20296;-51
2021/03/24 00:16:48;;;;;;;36.00;20.58;;;;;;;-1.37;100.00;96771.22;1023439;28;20027;-49
2021/03/24 00:17:18;;;;;;;31.45;20.75;;;;;;;-1.35;100.00;96768.63;1023494;28;20073;-50
2021/03/24 00:17:49;;;;;;;34.97;19.85;;;;;;;-1.37;100.00;96773.78;1027545;28;20495;-51
2021/03/24 00:18:20;;;;;;;34.80;20.73;;;;;;;-1.39;100.00;96771.25;1023476;28;20464;-50
2021/03/24 00:18:50;;;;;;;33.65;20.48;;;;;;;-1.38;100.00;96770.38;1023423;29;20122;-50
2021/03/24 00:19:21;;;;;;;33.65;20.92;;;;;;;-1.38;100.00;96772.09;1027480;28;20066;-52
2021/03/24 00:19:52;;;;;;;31.33;20.58;;;;;;;-1.39;100.00;96771.25;1023526;29;20034;-46
2021/03/24 00:20:26;;;;;;;32.72;20.27;;;;;;;-1.39;100.00;96775.53;1015659;29;20468;-49
2021/03/24 00:20:57;;;;;;;31.83;21.20;;;;;;;-1.39;100.00;96771.25;1023460;29;20059;-51
2021/03/24 00:21:27;;;;;;;30.27;20.25;;;;;;;-1.39;100.00;96772.94;1027571;28;20254;-52
2021/03/24 00:21:58;;;;;;;32.95;20.75;;;;;;;-1.40;100.00;96774.69;1023441;29;20790;-51
2021/03/24 00:22:29;;;;;;;33.83;21.25;;;;;;;-1.40;100.00;96772.13;1023520;29;20056;-48
2021/03/24 00:23:00;;;;;;;33.80;20.33;;;;;;;-1.41;100.00;96773.00;1027650;28;20082;-52
2021/03/24 00:23:30;;;;;;;33.70;19.88;;;;;;;-1.39;100.00;96773.81;1027353;28;20030;-53
2021/03/24 00:24:01;;;;;;;32.90;20.50;;;;;;;-1.40;100.00;96773.84;1015565;28;20470;-50
2021/03/24 00:24:32;;;;;;;30.35;20.58;;;;;;;-1.40;100.00;96774.69;1023650;29;20031;-52
2021/03/24 00:25:04;;;;;;;35.00;20.88;;;;;;;-1.41;100.00;96773.00;1027453;28;20019;-50
2021/03/24 00:25:35;;;;;;;32.05;20.33;;;;;;;-1.41;100.00;96772.13;1023525;29;20027;-52
2021/03/24 00:26:05;;;;;;;28.50;19.30;;;;;;;-1.42;100.00;96763.56;1031412;28;20332;-50
2021/03/24 00:26:36;;;;;;;31.95;20.42;;;;;;;-1.39;100.00;96770.38;1019555;29;20035;-51
2021/03/24 00:27:08;;;;;;;30.95;20.80;;;;;;;-1.42;100.00;96768.72;1019600;29;20027;-50
2021/03/24 00:27:39;;;;;;;36.13;20.08;;;;;;;-1.41;100.00;96770.44;1011718;29;20036;-51
2021/03/24 00:28:10;;;;;;;32.13;19.08;;;;;;;-1.43;100.00;96769.56;1015496;29;20280;-50
2021/03/24 00:28:41;;;;;;;29.83;20.40;;;;;;;-1.44;100.00;96770.44;1023437;29;20027;-51
2021/03/24 00:29:12;;;;;;;27.75;19.90;;;;;;;-1.46;100.00;96767.03;1027504;28;20262;-53
2021/03/24 00:29:42;;;;;;;33.03;20.88;;;;;;;-1.48;100.00;96761.06;1027509;28;20262;-52
2021/03/24 00:30:15;;;;;;;34.15;21.23;;;;;;;-1.49;100.00;96761.91;1027593;28;20026;-50
2021/03/24 00:30:47;;;;;;;29.38;19.20;;;;;;;-1.49;100.00;96767.06;1024355;29;20115;-50
2021/03/24 00:31:18;;;;;;;30.77;19.92;;;;;;;-1.49;100.00;96761.06;1020240;29;20645;-50
2021/03/24 00:31:49;;;;;;;32.28;20.85;;;;;;;-1.50;100.00;96764.50;1024321;28;20251;-51
2021/03/24 00:32:20;;;;;;;30.27;21.05;;;;;;;-1.51;100.00;96771.38;1020202;29;20505;-52
2021/03/24 00:32:50;;;;;;;28.30;19.88;;;;;;;-1.53;100.00;96767.13;1020375;29;20052;-50
2021/03/24 00:33:23;;;;;;;33.05;20.02;;;;;;;-1.55;100.00;96764.56;1028268;28;20397;-50
2021/03/24 00:33:54;;;;;;;37.53;20.33;;;;;;;-1.54;100.00;96766.25;1024198;28;20030;-51
2021/03/24 00:34:25;;;;;;;31.00;21.27;;;;;;;-1.53;100.00;96756.84;1028127;28;20345;-49
2021/03/24 00:34:56;;;;;;;33.15;21.42;;;;;;;-1.56;100.00;96760.28;1032291;28;20070;-50
2021/03/24 00:35:26;;;;;;;34.40;21.92;;;;;;;-1.53;100.00;96765.38;1028344;28;20109;-51
2021/03/24 00:35:57;;;;;;;35.42;21.52;;;;;;;-1.54;100.00;96760.25;1028254;28;20063;-49
2021/03/24 00:36:28;;;;;;;30.25;19.38;;;;;;;-1.54;100.00;96758.53;1024240;29;20023;-50
2021/03/24 00:36:58;;;;;;;33.28;20.40;;;;;;;-1.56;100.00;96760.28;1024191;28;20035;-50
2021/03/24 00:37:29;;;;;;;31.20;20.63;;;;;;;-1.58;100.00;96757.75;1028271;28;20018;-49
2021/03/24 00:38:00;;;;;;;30.05;20.08;;;;;;;-1.57;100.00;96756.84;1020399;29;20598;-48
2021/03/24 00:38:30;;;;;;;28.40;20.75;;;;;;;-1.59;100.00;96750.03;1024214;28;20023;-51
2021/03/24 00:39:01;;;;;;;34.13;20.83;;;;;;;-1.55;100.00;96751.72;1024138;28;20074;-50
2021/03/24 00:39:32;;;;;;;36.83;22.48;;;;;;;-1.53;100.00;96757.69;1028266;28;20495;-49
2021/03/24 00:40:06;;;;;;;34.00;20.58;;;;;;;-1.53;100.00;96760.25;1024310;28;20170;-49
2021/03/24 00:40:40;;;;;;;31.20;20.16;;;;;;;-1.54;100.00;96748.25;1024180;29;20086;-51
2021/03/24 00:41:11;;;;;;;31.60;20.67;;;;;;;-1.54;100.00;96753.38;1020215;29;20118;-49
2021/03/24 00:41:42;;;;;;;32.83;20.50;;;;;;;-1.52;100.00;96754.25;1017479;29;20271;-49
2021/03/24 00:42:13;;;;;;;30.83;20.42;;;;;;;-1.50;100.00;96755.09;1016259;29;20035;-50
2021/03/24 00:42:43;;;;;;;30.52;20.42;;;;;;;-1.46;100.00;96751.63;1024076;29;20019;-49
2021/03/24 00:43:14;;;;;;;31.02;21.10;;;;;;;-1.50;100.00;96746.50;1028242;28;20572;-50
2021/03/24 00:43:45;;;;;;;29.98;19.35;;;;;;;-1.46;100.00;96756.75;1028066;28;20071;-50
2021/03/24 00:44:15;;;;;;;30.90;20.52;;;;;;;-1.46;100.00;96756.75;1024231;28;20016;-51
2021/03/24 00:44:46;;;;;;;34.45;20.75;;;;;;;-1.48;100.00;96750.78;1020127;29;20080;-50
2021/03/24 00:45:17;;;;;;;29.13;19.75;;;;;;;-1.49;100.00;96753.38;1024158;29;20023;-51
2021/03/24 00:45:48;;;;;;;32.42;20.02;;;;;;;-1.51;100.00;96757.66;1028201;28;20026;-50
2021/03/24 00:46:19;;;;;;;33.92;21.63;;;;;;;-1.50;100.00;96755.09;1024198;29;20283;-51
2021/03/24 00:46:50;;;;;;;28.35;20.02;;;;;;;-1.51;100.00;96749.97;1028247;28;20106;-51
2021/03/24 00:47:20;;;;;;;30.48;18.90;;;;;;;-1.51;100.00;96755.09;1028116;28;20039;-52
2021/03/24 00:47:52;;;;;;;31.90;20.55;;;;;;;-1.48;100.00;96755.06;1032191;28;20253;-51
2021/03/24 00:48:25;;;;;;;33.42;20.48;;;;;;;-1.49;100.00;96761.91;1024278;28;20289;-50
2021/03/24 00:48:56;;;;;;;33.47;20.02;;;;;;;-1.52;100.00;96754.25;1028109;28;20250;-50
2021/03/24 00:49:27;;;;;;;28.67;19.25;;;;;;;-1.50;100.00;96751.66;1028150;28;20262;-51
2021/03/24 00:49:58;;;;;;;32.13;20.77;;;;;;;-1.49;100.00;96761.91;1028261;28;20023;-50
2021/03/24 00:50:29;;;;;;;31.13;20.45;;;;;;;-1.52;100.00;96758.53;1028505;28;20027;-50
2021/03/24 00:51:00;;;;;;;31.04;20.32;;;;;;;-1.55;100.00;96753.44;1028174;28;20019;-50
2021/03/24 00:51:31;;;;;;;35.50;22.20;;;;;;;-1.55;100.00;96754.28;1016328;28;20024;-50
2021/03/24 00:52:03;;;;;;;31.35;19.73;;;;;;;-1.55;100.00;96756.84;1016396;29;20008;-50
2021/03/24 00:52:33;;;;;;;31.32;19.78;;;;;;;-1.54;100.00;96753.38;1020605;29;20026;-50
2021/03/24 00:53:04;;;;;;;30.60;20.95;;;;;;;-1.55;100.00;96754.28;1028463;28;20295;-50
2021/03/24 00:53:35;;;;;;;34.10;22.23;;;;;;;-1.55;100.00;96750.88;1035790;28;20014;-50
2021/03/24 00:54:06;;;;;;;35.83;21.65;;;;;;;-1.56;100.00;96747.41;1024078;29;20024;-49
2021/03/24 00:54:37;;;;;;;31.88;20.23;;;;;;;-1.57;100.00;96754.28;1032220;28;20438;-48
2021/03/24 00:55:08;;;;;;;35.38;21.95;;;;;;;-1.57;100.00;96750.88;1016204;29;20008;-52
2021/03/24 00:55:39;;;;;;;31.40;20.08;;;;;;;-1.57;100.00;96751.72;1016204;29;20035;-51
2021/03/24 00:56:10;;;;;;;35.90;21.38;;;;;;;-1.59;100.00;96752.59;1020221;29;20019;-49
2021/03/24 00:56:40;;;;;;;32.53;21.92;;;;;;;-1.61;100.00;96747.47;1020410;28;20458;-50
2021/03/24 00:57:11;;;;;;;30.00;20.17;;;;;;;-1.61;100.00;96749.22;1024195;29;20022;-51
2021/03/24 00:57:42;;;;;;;33.05;20.67;;;;;;;-1.56;100.00;96750.00;1016192;29;20012;-50
2021/03/24 00:58:13;;;;;;;32.55;19.77;;;;;;;-1.63;100.00;96731.22;1024211;28;20019;-49
2021/03/24 00:58:43;;;;;;;31.08;21.08;;;;;;;-1.53;100.00;96749.13;1024125;29;20251;-50
2021/03/24 00:59:14;;;;;;;28.25;19.20;;;;;;;-1.54;100.00;96743.13;1028101;28;20491;-49
2021/03/24 00:59:45;;;;;;;31.35;20.17;;;;;;;-1.54;100.00;96748.25;1019782;28;20020;-49
2021/03/24 01:00:19;;;;;;;32.17;20.30;;;;;;;-1.55;100.00;96745.72;1016275;29;20549;-49
2021/03/24 01:00:50;;;;;;;28.56;19.22;;;;;;;-1.57;100.00;96744.00;1016172;29;20056;-50
2021/03/24 01:01:21;;;;;;;28.30;19.90;;;;;;;-1.56;100.00;96739.72;1028165;28;20026;-53
2021/03/24 01:01:52;;;;;;;30.58;20.02;;;;;;;-1.53;100.00;96749.13;1028039;28;20755;-47
2021/03/24 01:02:22;;;;;;;32.22;20.52;;;;;;;-1.54;100.00;96743.13;1028226;28;20055;-49
2021/03/24 01:02:53;;;;;;;35.38;20.98;;;;;;;-1.57;100.00;96746.56;1024302;29;20015;-50
2021/03/24 01:03:24;;;;;;;30.77;18.63;;;;;;;-1.61;100.00;96734.63;1024139;29;20436;-49
2021/03/24 01:03:55;;;;;;;34.92;21.55;;;;;;;-1.59;100.00;96740.59;1019905;29;20043;-50
2021/03/24 01:04:25;;;;;;;30.20;20.08;;;;;;;-1.57;100.00;96736.28;1028157;28;20019;-51
2021/03/24 01:04:56;;;;;;;33.00;20.25;;;;;;;-1.57;100.00;96735.47;1020102;29;20028;-50
2021/03/24 01:05:27;;;;;;;32.78;21.08;;;;;;;-1.58;100.00;96733.75;1020176;29;20398;-49
2021/03/24 01:05:57;;;;;;;31.65;20.83;;;;;;;-1.59;100.00;96739.75;1028102;28;20118;-52
2021/03/24 01:06:28;;;;;;;32.28;21.17;;;;;;;-1.62;100.00;96730.34;1028143;28;20019;-50
2021/03/24 01:06:59;;;;;;;31.20;21.80;;;;;;;-1.60;100.00;96732.91;1028112;28;20023;-50
2021/03/24 01:07:30;;;;;;;30.90;21.10;;;;;;;-1.62;100.00;96738.06;1028184;28;20042;-50
2021/03/24 01:08:02;;;;;;;32.15;22.48;;;;;;;-1.65;100.00;96732.97;1023989;29;20031;-47
2021/03/24 01:08:33;;;;;;;30.88;19.90;;;;;;;-1.63;100.00;96738.09;1024118;29;20034;-49
2021/03/24 01:09:07;;;;;;;31.58;20.08;;;;;;;-1.64;100.00;96731.25;1020030;29;20279;-51
2021/03/24 01:09:38;;;;;;;32.70;20.95;;;;;;;-1.69;100.00;96728.72;1024089;29;20034;-50
2021/03/24 01:10:12;;;;;;;35.45;21.95;;;;;;;-1.68;100.00;96737.28;1020041;29;20266;-48
2021/03/24 01:10:43;;;;;;;32.92;20.30;;;;;;;-1.69;100.00;96733.88;1028088;28;20403;-50
2021/03/24 01:11:14;;;;;;;30.92;21.98;;;;;;;-1.70;100.00;96734.72;1020159;29;20271;-51
2021/03/24 01:11:45;;;;;;;28.70;20.17;;;;;;;-1.69;100.00;96730.44;1024107;29;20034;-50
2021/03/24 01:12:15;;;;;;;34.10;21.35;;;;;;;-1.73;100.00;96728.75;1023994;29;20015;-51
2021/03/24 01:12:46;;;;;;;31.20;21.08;;;;;;;-1.72;100.00;96726.19;1032141;28;20018;-50
2021/03/24 01:13:17;;;;;;;33.63;22.25;;;;;;;-1.74;100.00;96733.03;1023997;29;20105;-48
2021/03/24 01:13:48;;;;;;;33.50;21.15;;;;;;;-1.77;100.00;96725.34;1023917;29;20074;-51
2021/03/24 01:14:18;;;;;;;29.98;20.60;;;;;;;-1.77;100.00;96733.91;1023980;29;20027;-51
2021/03/24 01:14:49;;;;;;;31.70;21.25;;;;;;;-1.80;100.00;96731.38;1020197;29;20099;-50
2021/03/24 01:15:21;;;;;;;31.92;22.23;;;;;;;-1.80;100.00;96723.69;1020146;29;20024;-51
2021/03/24 01:15:52;;;;;;;31.84;22.06;;;;;;;-1.81;100.00;96724.53;1024217;29;20200;-49
2021/03/24 01:16:23;;;;;;;31.23;20.77;;;;;;;-1.79;100.00;96725.38;1024051;29;20385;-51
2021/03/24 01:16:54;;;;;;;30.02;21.02;;;;;;;-1.82;100.00;96727.09;1024199;29;20325;-52
2021/03/24 01:17:24;;;;;;;29.55;20.55;;;;;;;-1.83;100.00;96733.97;1024056;29;20036;-50
2021/03/24 01:17:56;;;;;;;29.75;19.92;;;;;;;-1.84;100.00;96734.84;1024140;29;20131;-50
2021/03/24 01:18:26;;;;;;;32.66;22.12;;;;;;;-1.85;100.00;96740.00;1028010;28;20030;-51
2021/03/24 01:18:57;;;;;;;31.65;21.00;;;;;;;-1.84;100.00;96729.72;1023952;28;20126;-50
2021/03/24 01:19:28;;;;;;;30.90;20.55;;;;;;;-1.81;100.00;96739.09;1028192;28;20031;-50
2021/03/24 01:19:58;;;;;;;37.25;22.48;;;;;;;-1.86;100.00;96731.44;1028155;28;20531;-49
2021/03/24 01:20:31;;;;;;;30.88;23.02;;;;;;;-1.85;100.00;96733.13;1023951;29;20023;-49
2021/03/24 01:21:01;;;;;;;32.47;21.77;;;;;;;-1.84;100.00;96736.53;1024170;28;20572;-50
2021/03/24 01:21:32;;;;;;;35.97;22.98;;;;;;;-1.85;100.00;96738.28;1024198;28;20299;-53
2021/03/24 01:22:03;;;;;;;36.55;22.90;;;;;;;-1.85;100.00;96738.28;1020163;29;20107;-50
2021/03/24 01:22:34;;;;;;;32.20;21.62;;;;;;;-1.87;100.00;96734.88;1020101;29;20426;-50
2021/03/24 01:23:05;;;;;;;33.10;21.27;;;;;;;-1.88;100.00;96733.16;1020205;29;20016;-49
2021/03/24 01:23:36;;;;;;;30.48;21.38;;;;;;;-1.87;100.00;96736.59;1020099;28;20015;-51
2021/03/24 01:24:07;;;;;;;32.22;21.75;;;;;;;-1.86;100.00;96738.28;1020199;29;20012;-50
2021/03/24 01:24:38;;;;;;;32.15;22.83;;;;;;;-1.88;100.00;96733.16;1024138;29;20027;-50
2021/03/24 01:25:09;;;;;;;35.20;23.77;;;;;;;-1.90;100.00;96734.03;1032112;28;20015;-50
2021/03/24 01:25:41;;;;;;;30.45;20.73;;;;;;;-1.90;100.00;96734.88;1020091;29;20046;-50
2021/03/24 01:26:11;;;;;;;36.53;21.20;;;;;;;-1.88;100.00;96729.75;1028061;28;20254;-49
2021/03/24 01:26:42;;;;;;;29.63;20.52;;;;;;;-1.88;100.00;96732.31;1020481;29;20080;-50
2021/03/24 01:27:13;;;;;;;29.90;20.65;;;;;;;-1.90;100.00;96731.47;1024067;28;20021;-50
2021/03/24 01:27:43;;;;;;;33.38;21.67;;;;;;;-1.90;100.00;96734.88;1024112;29;20019;-49
2021/03/24 01:28:19;;;;;;;33.22;21.95;;;;;;;-1.91;100.00;96730.63;1032086;28;20046;-49
2021/03/24 01:29:30;;;;;;;35.38;21.92;;;;;;;-1.89;100.00;96738.34;1028097;28;20290;-53
2021/03/24 01:30:01;;;;;;;32.42;21.65;;;;;;;-1.90;100.00;96732.31;1028178;28;20262;-48
2021/03/24 01:30:33;;;;;;;31.38;21.30;;;;;;;-1.91;100.00;96734.94;1028121;28;20015;-50
2021/03/24 01:31:03;;;;;;;32.88;20.85;;;;;;;-1.92;100.00;96733.22;1020109;29;20259;-51
2021/03/24 01:31:34;;;;;;;34.10;21.50;;;;;;;-1.93;100.00;96729.78;1024541;28;20748;-50
2021/03/24 01:32:06;;;;;;;35.22;21.52;;;;;;;-1.93;100.00;96737.50;1022321;29;20065;-52
2021/03/24 01:32:37;;;;;;;39.97;22.00;;;;;;;-1.94;100.00;96737.50;1022377;28;20482;-53
2021/03/24 01:33:08;;;;;;;35.90;21.55;;;;;;;-1.95;100.00;96736.66;1026132;28;20259;-50
2021/03/24 01:33:38;;;;;;;32.75;21.13;;;;;;;-1.96;100.00;96732.38;1025560;28;20327;-50
2021/03/24 01:34:09;;;;;;;34.47;22.38;;;;;;;-1.97;100.00;96736.66;1026012;28;20026;-52
2021/03/24 01:34:40;;;;;;;33.92;21.05;;;;;;;-1.96;100.00;96729.81;1018284;29;20020;-50
2021/03/24 01:35:12;;;;;;;35.95;21.20;;;;;;;-1.93;100.00;96732.38;1030327;28;20015;-53
2021/03/24 01:35:43;;;;;;;31.83;22.58;;;;;;;-2.20;100.00;96682.94;1034789;28;20015;-50
2021/03/24 01:36:14;;;;;;;34.38;22.27;;;;;;;-1.92;100.00;96731.47;1026438;28;20586;-51
2021/03/24 01:36:45;;;;;;;33.03;22.35;;;;;;;-1.92;100.00;96731.47;1030323;28;20255;-52
2021/03/24 01:37:16;;;;;;;32.90;22.35;;;;;;;-1.92;100.00;96730.63;1026186;29;20026;-51
2021/03/24 01:37:47;;;;;;;31.10;20.50;;;;;;;-1.94;100.00;96728.06;1019026;29;20107;-51
2021/03/24 01:38:18;;;;;;;35.10;20.50;;;;;;;-1.95;100.00;96734.09;1024451;29;20015;-50
2021/03/24 01:38:48;;;;;;;34.80;22.33;;;;;;;-1.94;100.00;96732.38;1028000;28;20255;-49
2021/03/24 01:39:19;;;;;;;34.92;23.40;;;;;;;-1.91;100.00;96738.34;1023942;29;20034;-49
2021/03/24 01:39:51;;;;;;;33.28;22.10;;;;;;;-1.93;100.00;96732.38;1024125;28;20014;-49
2021/03/24 01:40:33;;;;;;;32.78;22.10;;;;;;;-1.93;100.00;96731.50;1016125;29;20028;-51
2021/03/24 01:41:04;;;;;;;36.95;22.60;;;;;;;-1.94;100.00;96738.34;1019987;29;20260;-50
2021/03/24 01:41:35;;;;;;;36.78;22.35;;;;;;;-1.96;100.00;96738.34;1023469;28;20372;-50
2021/03/24 01:42:07;;;;;;;33.35;22.60;;;;;;;-1.93;100.00;96736.63;1019469;29;20267;-50
2021/03/24 01:42:37;;;;;;;36.32;22.24;;;;;;;-1.95;100.00;96734.09;1027929;28;20027;-50
2021/03/24 01:43:17;;;;;;;37.17;23.27;;;;;;;-1.94;100.00;96737.50;1024021;29;20038;-50
2021/03/24 01:43:48;;;;;;;35.55;21.70;;;;;;;-1.96;100.00;96728.09;1015894;29;20172;-49
2021/03/24 01:44:19;;;;;;;37.10;24.83;;;;;;;-1.94;100.00;96737.50;1020126;29;20113;-50
2021/03/24 01:45:00;;;;;;;37.70;23.38;;;;;;;-1.94;100.00;96740.06;1020020;29;20054;-49
2021/03/24 01:45:31;;;;;;;36.20;22.83;;;;;;;-1.96;100.00;96738.34;1020023;29;20477;-50
2021/03/24 01:46:20;;;;;;;34.74;22.14;;;;;;;-1.95;100.00;96736.66;1016134;29;20260;-49
2021/03/24 01:46:51;;;;;;;35.42;22.38;;;;;;;-1.94;100.00;96732.38;1024038;28;20016;-49
2021/03/24 01:47:22;;;;;;;35.62;22.18;;;;;;;-1.92;100.00;96740.91;1020018;29;20023;-50
2021/03/24 01:47:54;;;;;;;36.67;22.30;;;;;;;-2.01;100.00;96719.59;1022626;29;20031;-47
2021/03/24 01:48:25;;;;;;;37.86;22.36;;;;;;;-1.92;100.00;96735.78;1020445;29;20045;-50
2021/03/24 01:49:02;;;;;;;39.20;23.98;;;;;;;-1.92;100.00;96735.78;1023850;28;20110;-51
2021/03/24 01:49:34;;;;;;;41.22;24.78;;;;;;;-1.94;100.00;96735.78;1028123;28;20051;-49
2021/03/24 01:50:12;;;;;;;41.94;23.36;;;;;;;-1.95;100.00;96734.09;1019876;29;20016;-49
2021/03/24 01:50:44;;;;;;;38.16;24.22;;;;;;;-1.93;100.00;96734.06;1027959;28;20062;-52
2021/03/24 01:51:14;;;;;;;39.50;23.45;;;;;;;-1.94;100.00;96738.34;1028066;28;20106;-50
2021/03/24 01:51:48;;;;;;;36.60;22.10;;;;;;;-1.91;100.00;96733.19;1019979;29;20357;-49
2021/03/24 01:52:19;;;;;;;35.06;23.54;;;;;;;-1.91;100.00;96735.78;1023952;29;20101;-49
2021/03/24 01:52:50;;;;;;;35.88;24.95;;;;;;;-1.92;100.00;96739.19;1027964;28;20015;-50
2021/03/24 01:53:20;;;;;;;36.38;23.02;;;;;;;-1.93;100.00;96731.50;1027805;28;20084;-49
2021/03/24 01:53:52;;;;;;;34.42;21.73;;;;;;;-1.95;100.00;96734.09;1027799;28;20021;-49
2021/03/24 01:54:28;;;;;;;33.05;21.13;;;;;;;-1.94;100.00;96734.94;1019961;29;20016;-50
2021/03/24 01:54:59;;;;;;;33.28;22.10;;;;;;;-1.95;100.00;96731.53;1023903;28;20259;-49
2021/03/24 01:55:30;;;;;;;36.38;22.70;;;;;;;-1.97;100.00;96733.25;1024113;28;20337;-49
2021/03/24 01:56:01;;;;;;;37.22;23.25;;;;;;;-1.95;100.00;96734.09;1019878;29;20055;-50
2021/03/24 01:56:31;;;;;;;37.30;23.73;;;;;;;-1.96;100.00;96737.50;1023990;28;20694;-53
2021/03/24 01:57:06;;;;;;;36.70;22.98;;;;;;;-1.98;100.00;96734.13;1020012;29;20027;-49
2021/03/24 01:57:37;;;;;;;34.75;21.77;;;;;;;-1.99;100.00;96734.97;1028048;28;20021;-49
2021/03/24 01:58:08;;;;;;;36.25;23.08;;;;;;;-1.99;100.00;96737.53;1020013;29;20244;-50
2021/03/24 01:58:39;;;;;;;33.55;20.92;;;;;;;-1.99;100.00;96735.84;1020093;29;20016;-47
2021/03/24 01:59:09;;;;;;;41.85;24.52;;;;;;;-2.01;100.00;96727.28;1024055;29;20011;-49
2021/03/24 01:59:40;;;;;;;39.97;23.00;;;;;;;-2.04;100.00;96734.16;1020035;29;20016;-50
2021/03/24 02:00:24;;;;;;;35.60;23.17;;;;;;;-2.10;100.00;96732.50;1027916;28;20019;-47
2021/03/24 02:00:55;;;;;;;42.42;23.46;;;;;;;-2.13;100.00;96736.81;1019899;29;20246;-50
2021/03/24 02:01:26;;;;;;;40.88;25.04;;;;;;;-2.15;100.00;96729.97;1024011;28;20082;-50
2021/03/24 02:01:57;;;;;;;40.70;25.25;;;;;;;-2.16;100.00;96732.53;1023882;28;20417;-48
2021/03/24 02:02:32;;;;;;;33.78;22.42;;;;;;;-2.16;100.00;96745.38;1031829;28;20022;-51
2021/03/24 02:03:05;;;;;;;37.44;23.54;;;;;;;-2.18;100.00;96737.69;1019952;29;20087;-50
2021/03/24 02:03:36;;;;;;;35.66;23.50;;;;;;;-2.18;100.00;96735.13;1019805;29;20035;-50
2021/03/24 02:04:06;;;;;;;39.42;25.05;;;;;;;-2.18;100.00;96745.41;1027934;28;20058;-50
2021/03/24 02:04:37;;;;;;;38.65;25.02;;;;;;;-2.19;100.00;96733.41;1019844;29;20417;-50
2021/03/24 02:05:09;;;;;;;42.00;25.40;;;;;;;-2.18;100.00;96732.56;1027851;28;20031;-51
2021/03/24 02:05:42;;;;;;;37.05;23.05;;;;;;;-2.19;100.00;96733.41;1023889;28;20118;-49
2021/03/24 02:06:17;;;;;;;39.80;23.98;;;;;;;-2.19;100.00;96730.00;1027903;28;20262;-50
2021/03/24 02:07:00;;;;;;;44.72;26.02;;;;;;;-2.18;100.00;96736.81;1019936;29;20107;-50
2021/03/24 02:07:36;;;;;;;40.30;24.86;;;;;;;-2.19;100.00;96730.84;1023933;29;20027;-49
2021/03/24 02:08:08;;;;;;;41.44;23.68;;;;;;;-2.18;100.00;96732.56;1023952;29;20027;-49
2021/03/24 02:08:41;;;;;;;42.56;25.84;;;;;;;-2.22;100.00;96730.84;1023649;29;20031;-47
2021/03/24 02:09:25;;;;;;;44.78;24.66;;;;;;;-2.26;100.00;96736.88;1023944;29;20171;-47
2021/03/24 02:10:03;;;;;;;39.18;22.92;;;;;;;-2.26;100.00;96736.03;1019997;28;20019;-50
2021/03/24 02:10:44;;;;;;;40.22;24.22;;;;;;;-2.28;100.00;96730.91;1023898;29;20130;-49
2021/03/24 02:11:21;;;;;;;41.64;25.72;;;;;;;-2.31;100.00;96733.50;1020032;29;20516;-51
2021/03/24 02:11:59;;;;;;;47.80;27.84;;;;;;;-2.32;100.00;96736.94;1024071;29;20023;-47
2021/03/24 02:12:44;;;;;;;42.04;26.38;;;;;;;-2.31;100.00;96730.94;1019922;29;20038;-48
2021/03/24 02:13:34;;;;;;;41.02;25.20;;;;;;;-2.31;100.00;96736.06;1019930;29;20023;-53
2021/03/24 02:14:11;;;;;;;41.42;25.30;;;;;;;-2.33;100.00;96730.09;1016029;29;20024;-50
2021/03/24 02:14:53;;;;;;;40.68;25.14;;;;;;;-2.36;100.00;96727.56;1023849;28;20117;-49
2021/03/24 02:15:27;;;;;;;47.54;26.06;;;;;;;-2.36;100.00;96727.56;1023902;28;20030;-50
2021/03/24 02:16:02;;;;;;;37.74;24.98;;;;;;;-2.35;100.00;96732.69;1019955;29;20035;-49
2021/03/24 02:16:38;;;;;;;42.34;24.28;;;;;;;-2.36;100.00;96736.09;1019957;29;20032;-49
2021/03/24 02:17:08;;;;;;;43.70;24.72;;;;;;;-2.38;100.00;96732.69;1019770;29;20035;-52
2021/03/24 02:17:40;;;;;;;41.97;24.38;;;;;;;-2.37;100.00;96736.94;1023829;29;20019;-50
2021/03/24 02:18:11;;;;;;;45.42;28.42;;;;;;;-2.38;100.00;96730.13;1019889;29;20174;-49
2021/03/24 02:18:42;;;;;;;37.83;23.83;;;;;;;-2.37;100.00;96736.94;1019826;29;20019;-50
2021/03/24 02:19:23;;;;;;;40.42;24.40;;;;;;;-2.37;100.00;96730.97;1015872;29;20126;-53
2021/03/24 02:20:03;;;;;;;41.72;23.92;;;;;;;-2.38;100.00;96742.13;1023913;28;20033;-50
2021/03/24 02:20:37;;;;;;;36.30;23.30;;;;;;;-2.39;100.00;96737.84;1023855;28;20035;-50
2021/03/24 02:21:10;;;;;;;47.20;25.86;;;;;;;-2.40;100.00;96736.16;1027594;28;20022;-50
2021/03/24 02:21:41;;;;;;;44.10;25.56;;;;;;;-2.41;100.00;96737.84;1027898;28;20018;-52
2021/03/24 02:22:14;;;;;;;39.58;24.25;;;;;;;-2.39;100.00;96737.84;1023959;28;20173;-50
2021/03/24 02:22:47;;;;;;;44.18;24.66;;;;;;;-2.43;100.00;96736.16;1023810;28;20018;-49
2021/03/24 02:23:37;;;;;;;36.80;24.34;;;;;;;-2.42;100.00;96735.28;1023683;28;20019;-51
2021/03/24 02:24:16;;;;;;;35.88;22.73;;;;;;;-2.45;100.00;96738.72;1027941;28;20042;-50
2021/03/24 02:24:57;;;;;;;34.76;22.28;;;;;;;-2.46;100.00;96731.03;1031864;28;20574;-52
2021/03/24 02:25:31;;;;;;;37.70;23.36;;;;;;;-2.48;100.00;96735.31;1031772;28;20018;-50
2021/03/24 02:26:12;;;;;;;37.60;23.12;;;;;;;-2.50;100.00;96737.91;1023937;28;20015;-51
2021/03/24 02:26:56;;;;;;;41.18;24.26;;;;;;;-2.52;100.00;96736.22;1023896;28;20477;-49